コロンボ の空港の天気 - METARとTAF

バンダラナイケ国際空港 ( VCBI / CMB ) - スリランカ コロンボ
飛行場実況気象(Metar)
観測時間01/19 16:40 IST (01/19 11:10 UTC)
風向・風速北 3m/s
視程9000m
天気現象
全天の4割程度の雲 雲底高度 550m
気温27℃
湿度66%
気圧1010hPa
METARVCBI 191110Z 35005KT 300V040 9000 SCT018 27/20 Q1010 NOSIG
過去の天気等 Google飛行場航空写真 Wunderground天気予報

過去48時間のMETAR

飛行場予報(TAF)
発表時間: 1/19 10:30 IST (1/19 05:00 UTC)
予報対象時間: 19日11時 IST ~ 20日17時 IST
風向・風速北北東 6m/s
視程10km以上
なし
20日5時 IST ~ 20日7時 IST に一時的に
視程6000m
TAF VCBI 190500Z 1906/2012 03012KT 9999 NSC TX31/1908Z TN23/2000Z
TEMPO 2000/2002 6000